Time;durP1;ratioP1;P1;durP2;ratioP2;P2;SDS_P1;SDS_P2;PMS_P1;PMS_P2;Temp;Humidity;BMP_temperature;BMP_pressure;BME280_temperature;BME280_humidity;BME280_pressure;Samples;Min_cycle;Max_cycle;Signal;HPM_P1;HPM_P2
2023/12/08 00:02:02;;;;;;;18.60;12.37;;;2.30;75.40;0.20;95927.00;;;;5030392;28;20531;-83
2023/12/08 00:04:33;;;;;;;18.00;12.13;;;2.20;75.20;0.20;95935.00;;;;5037564;28;20865;-82
2023/12/08 00:07:00;;;;;;;18.10;12.40;;;2.30;75.30;0.20;95927.00;;;;5032350;28;20511;-83
2023/12/08 00:09:27;;;;;;;17.83;12.27;;;2.30;75.30;0.20;95928.00;;;;5035860;28;20452;-83
2023/12/08 00:11:54;;;;;;;17.60;11.97;;;2.30;75.20;0.20;95930.00;;;;5043442;28;20467;-82
2023/12/08 00:14:21;;;;;;;19.47;12.67;;;2.20;75.80;0.20;95936.00;;;;5048061;28;20491;-83
2023/12/08 00:16:48;;;;;;;17.17;12.37;;;2.20;75.10;0.20;95926.00;;;;5032705;28;20851;-83
2023/12/08 00:19:17;;;;;;;19.23;11.70;;;2.20;75.20;0.20;95927.00;;;;5049378;28;20521;-83
2023/12/08 00:21:44;;;;;;;18.00;12.70;;;2.20;75.20;0.20;95917.00;;;;5043209;28;21048;-83
2023/12/08 00:24:12;;;;;;;18.73;12.33;;;2.20;75.10;0.20;95916.00;;;;5044836;28;20467;-83
2023/12/08 00:26:39;;;;;;;16.80;11.23;;;2.20;75.10;0.20;95917.00;;;;5043240;28;20463;-83
2023/12/08 00:29:06;;;;;;;17.40;11.87;;;2.20;75.00;0.10;95918.00;;;;5051672;28;20431;-84
2023/12/08 00:31:33;;;;;;;17.67;12.00;;;2.20;75.00;0.10;95911.00;;;;5043149;28;20498;-83
2023/12/08 00:34:00;;;;;;;16.87;11.63;;;2.20;75.00;0.10;95903.00;;;;5052147;28;20461;-83
2023/12/08 00:36:28;;;;;;;18.63;12.17;;;2.30;75.00;0.10;95907.00;;;;5044634;28;20470;-83
2023/12/08 00:38:56;;;;;;;17.17;11.43;;;2.30;74.90;0.10;95895.00;;;;5044788;28;20459;-83
2023/12/08 00:41:24;;;;;;;17.93;12.00;;;2.10;74.80;0.10;95905.00;;;;5046485;28;20513;-84
2023/12/08 00:43:51;;;;;;;17.83;12.50;;;2.10;74.80;0.10;95913.00;;;;5043838;28;20444;-83
2023/12/08 00:46:18;;;;;;;18.63;12.43;;;2.10;74.80;0.00;95919.00;;;;5034302;28;20478;-82
2023/12/08 00:48:44;;;;;;;20.50;12.97;;;2.10;74.90;0.00;95907.00;;;;5039261;28;20434;-83
2023/12/08 00:51:13;;;;;;;18.13;11.97;;;2.10;74.90;0.00;95893.00;;;;5052772;28;20446;-83
2023/12/08 00:53:42;;;;;;;17.97;11.93;;;2.10;74.90;0.00;95895.00;;;;5044842;28;20914;-84
2023/12/08 00:56:10;;;;;;;17.10;12.37;;;2.00;74.90;0.00;95906.00;;;;5050222;28;20527;-84
2023/12/08 00:58:38;;;;;;;15.73;11.33;;;2.10;75.00;0.00;95903.00;;;;5041113;28;20523;-83
2023/12/08 01:01:05;;;;;;;18.97;12.43;;;2.10;75.00;0.00;95888.00;;;;5050140;28;20548;-83
2023/12/08 01:03:33;;;;;;;21.60;13.57;;;2.10;75.10;0.00;95874.00;;;;5040862;28;20928;-83
2023/12/08 01:06:00;;;;;;;17.70;11.90;;;2.10;75.20;0.00;95870.00;;;;5051004;28;20525;-83
2023/12/08 01:08:27;;;;;;;18.40;12.10;;;2.10;75.20;0.00;95861.00;;;;5035555;28;20531;-84
2023/12/08 01:10:56;;;;;;;17.97;12.13;;;2.00;75.30;0.00;95852.00;;;;5050276;28;20479;-84
2023/12/08 01:13:23;;;;;;;18.90;11.63;;;2.10;75.60;0.10;95864.00;;;;5036476;28;20522;-83
2023/12/08 01:15:50;;;;;;;18.60;12.40;;;2.10;75.80;0.10;95866.00;;;;5042974;28;20547;-83
2023/12/08 01:18:17;;;;;;;21.10;12.80;;;2.10;75.80;0.20;95877.00;;;;5044668;28;20431;-83
2023/12/08 01:20:44;;;;;;;18.57;12.47;;;2.20;76.10;0.20;95875.00;;;;5054803;28;21064;-84
2023/12/08 01:23:13;;;;;;;18.60;12.07;;;2.20;76.20;0.30;95865.00;;;;5037746;28;20468;-83
2023/12/08 01:25:40;;;;;;;19.03;11.87;;;2.20;76.30;0.30;95851.00;;;;5039710;28;20459;-83
2023/12/08 01:28:08;;;;;;;18.73;12.60;;;2.30;76.60;0.40;95845.00;;;;5047473;28;20771;-83
2023/12/08 01:30:35;;;;;;;18.33;12.67;;;2.30;76.70;0.40;95841.00;;;;5042204;28;20520;-83
2023/12/08 01:33:03;;;;;;;19.10;12.73;;;2.40;76.80;0.50;95838.00;;;;5048425;28;20474;-84
2023/12/08 01:35:30;;;;;;;18.23;12.27;;;2.40;77.50;0.50;95845.00;;;;5034155;28;20460;-84
2023/12/08 01:37:57;;;;;;;21.40;12.67;;;2.50;76.80;0.60;95840.00;;;;5035161;28;20482;-83
2023/12/08 01:40:24;;;;;;;19.27;13.03;;;2.50;76.80;0.60;95829.00;;;;5047935;28;20483;-84
2023/12/08 01:42:52;;;;;;;18.07;11.73;;;2.70;77.00;0.70;95820.00;;;;5033997;28;20455;-83
2023/12/08 01:45:21;;;;;;;16.23;11.23;;;2.60;76.90;0.70;95819.00;;;;5035014;28;21034;-83
2023/12/08 01:47:49;;;;;;;17.67;11.50;;;2.60;76.70;0.80;95828.00;;;;5043809;28;20447;-83
2023/12/08 01:50:19;;;;;;;15.53;10.83;;;2.70;76.60;0.80;95834.00;;;;5050864;28;20470;-83
2023/12/08 01:52:46;;;;;;;17.60;11.97;;;2.70;76.30;0.80;95825.00;;;;5030045;28;20436;-83
2023/12/08 01:55:14;;;;;;;18.00;11.77;;;2.90;76.10;0.80;95821.00;;;;5048552;28;20454;-84
2023/12/08 01:57:41;;;;;;;14.37;10.77;;;2.80;75.80;0.80;95826.00;;;;5037491;28;20517;-83
2023/12/08 02:00:10;;;;;;;19.40;11.57;;;2.80;75.60;0.80;95838.00;;;;5037192;28;20483;-83
2023/12/08 02:02:39;;;;;;;13.67;9.20;;;2.80;75.40;0.80;95842.00;;;;5040978;28;20538;-83
2023/12/08 02:05:08;;;;;;;15.97;10.53;;;2.80;75.10;0.70;95840.00;;;;5040919;28;20989;-83
2023/12/08 02:07:36;;;;;;;17.40;11.97;;;2.70;75.00;0.70;95827.00;;;;5033148;28;20518;-83
2023/12/08 02:10:03;;;;;;;15.43;10.80;;;2.70;74.90;0.70;95824.00;;;;5032379;28;20764;-84
2023/12/08 02:12:31;;;;;;;14.87;10.53;;;2.70;74.80;0.70;95822.00;;;;5050822;28;20447;-84
2023/12/08 02:14:58;;;;;;;16.50;10.77;;;2.70;74.80;0.70;95824.00;;;;5037607;28;21002;-83
2023/12/08 02:17:32;;;;;;;16.70;10.47;;;2.70;74.80;0.60;95811.00;;;;5040780;28;20432;-84
2023/12/08 02:20:03;;;;;;;14.73;10.87;;;2.70;74.90;0.60;95807.00;;;;5033105;28;20486;-83
2023/12/08 02:22:30;;;;;;;15.50;10.77;;;2.60;74.80;0.60;95806.00;;;;5033927;28;20502;-83
2023/12/08 02:24:59;;;;;;;15.53;10.87;;;2.60;74.70;0.60;95811.00;;;;5040516;28;20553;-82
2023/12/08 02:27:26;;;;;;;14.87;10.80;;;2.60;74.70;0.60;95808.00;;;;5035666;28;20887;-83
2023/12/08 02:29:54;;;;;;;16.17;10.57;;;2.60;74.70;0.60;95797.00;;;;5033691;28;20443;-83
2023/12/08 02:32:42;;;;;;;15.33;10.90;;;2.60;74.80;0.60;95809.00;;;;5049528;28;20546;-83
2023/12/08 02:35:16;;;;;;;16.13;10.37;;;2.60;74.70;0.60;95815.00;;;;5025579;28;20448;-84
2023/12/08 02:37:48;;;;;;;14.97;10.67;;;2.60;75.00;0.60;95822.00;;;;5025753;28;20428;-82
2023/12/08 02:40:17;;;;;;;16.23;11.17;;;2.60;75.10;0.60;95809.00;;;;5042164;28;20485;-83
2023/12/08 02:42:45;;;;;;;15.50;10.87;;;2.60;75.20;0.60;95811.00;;;;5047606;28;20439;-83
2023/12/08 02:45:12;;;;;;;14.87;9.60;;;2.60;75.30;0.60;95800.00;;;;5041022;28;20489;-83
2023/12/08 02:47:40;;;;;;;16.13;10.77;;;2.60;75.30;0.60;95793.00;;;;5037474;28;20452;-84
2023/12/08 02:50:08;;;;;;;16.33;10.87;;;2.60;75.50;0.70;95794.00;;;;5040997;28;20454;-83
2023/12/08 02:52:35;;;;;;;19.13;11.27;;;2.60;76.40;0.70;95787.00;;;;5051756;28;20447;-83
2023/12/08 02:55:02;;;;;;;17.17;11.90;;;2.70;75.60;0.70;95773.00;;;;5035820;28;20464;-83
2023/12/08 02:57:31;;;;;;;17.30;11.60;;;2.70;75.60;0.70;95785.00;;;;5033505;28;20488;-83
2023/12/08 02:59:58;;;;;;;16.63;11.30;;;2.70;75.40;0.70;95779.00;;;;5034169;28;20428;-84
2023/12/08 03:02:26;;;;;;;16.30;11.10;;;2.70;75.30;0.70;95787.00;;;;5053637;28;20491;-83
2023/12/08 03:04:53;;;;;;;14.50;11.03;;;2.70;75.20;0.70;95782.00;;;;5049126;28;20471;-83
2023/12/08 03:07:20;;;;;;;16.33;10.97;;;2.70;75.30;0.70;95777.00;;;;5041333;28;20437;-82
2023/12/08 03:09:48;;;;;;;19.20;11.97;;;2.70;75.30;0.70;95770.00;;;;5040906;28;20946;-83
2023/12/08 03:12:15;;;;;;;14.70;10.43;;;2.70;75.30;0.70;95775.00;;;;5043117;28;20485;-83
2023/12/08 03:14:44;;;;;;;17.23;12.13;;;2.70;75.30;0.80;95768.00;;;;5040465;28;20520;-83
2023/12/08 03:17:11;;;;;;;16.53;11.37;;;2.70;75.30;0.80;95766.00;;;;5045879;28;20447;-83
2023/12/08 03:19:39;;;;;;;18.50;12.37;;;2.70;75.40;0.80;95750.00;;;;5047253;28;20432;-83
2023/12/08 03:22:06;;;;;;;15.87;10.57;;;2.70;75.20;0.80;95735.00;;;;5050604;28;20483;-83
2023/12/08 03:24:33;;;;;;;17.97;11.63;;;2.80;75.30;0.80;95732.00;;;;5042465;28;20468;-83
2023/12/08 03:27:01;;;;;;;17.07;11.53;;;2.80;75.50;0.80;95730.00;;;;5033425;28;20866;-83
2023/12/08 03:29:28;;;;;;;15.30;11.33;;;2.80;75.40;0.80;95727.00;;;;5032917;28;20452;-83
2023/12/08 03:31:57;;;;;;;16.43;10.60;;;2.80;75.30;0.80;95734.00;;;;5032767;28;20448;-82
2023/12/08 03:34:24;;;;;;;18.17;11.63;;;2.80;75.20;0.80;95755.00;;;;5032269;28;20451;-83
2023/12/08 03:36:51;;;;;;;16.63;10.93;;;2.80;75.20;0.80;95749.00;;;;5031494;28;20452;-84
2023/12/08 03:39:18;;;;;;;18.17;11.00;;;2.80;74.90;0.70;95759.00;;;;5031026;28;21111;-83
2023/12/08 03:41:46;;;;;;;18.87;11.77;;;2.80;74.70;0.70;95769.00;;;;5038657;28;20831;-83
2023/12/08 03:44:14;;;;;;;20.17;11.37;;;2.70;74.50;0.70;95780.00;;;;5031303;28;20474;-83
2023/12/08 03:46:43;;;;;;;18.23;11.60;;;2.70;74.60;0.70;95796.00;;;;5032476;28;20452;-83
2023/12/08 03:49:12;;;;;;;18.43;11.70;;;2.70;74.40;0.70;95789.00;;;;5040908;28;20428;-84
2023/12/08 03:51:39;;;;;;;17.40;11.97;;;2.70;74.60;0.70;95796.00;;;;5039463;28;20445;-83
2023/12/08 03:54:07;;;;;;;18.67;12.00;;;2.70;74.90;0.70;95799.00;;;;5032429;28;20954;-83
2023/12/08 03:56:34;;;;;;;21.13;12.37;;;2.70;74.90;0.70;95783.00;;;;5031966;28;20424;-83
2023/12/08 03:59:01;;;;;;;17.10;11.90;;;2.70;75.00;0.70;95779.00;;;;5012135;28;20444;-83
2023/12/08 04:01:29;;;;;;;18.83;12.07;;;2.70;75.10;0.70;95779.00;;;;5012632;28;21007;-83
2023/12/08 04:03:56;;;;;;;19.83;13.13;;;2.70;75.20;0.70;95775.00;;;;5035710;28;20455;-83
2023/12/08 04:06:25;;;;;;;17.17;11.37;;;2.70;75.40;0.70;95768.00;;;;5032070;28;20432;-83
2023/12/08 04:08:52;;;;;;;19.27;11.67;;;2.70;75.50;0.80;95777.00;;;;5032158;28;20459;-84
2023/12/08 04:11:19;;;;;;;20.03;12.50;;;2.70;75.40;0.80;95775.00;;;;5040478;28;20436;-83
2023/12/08 04:13:46;;;;;;;18.47;12.03;;;2.80;75.70;0.80;95765.00;;;;5037285;28;20461;-84
2023/12/08 04:16:15;;;;;;;15.77;10.47;;;2.80;75.90;0.80;95763.00;;;;5031606;28;20440;-83
2023/12/08 04:18:43;;;;;;;17.37;11.27;;;2.90;75.90;0.90;95759.00;;;;5035105;28;20451;-83
2023/12/08 04:21:17;;;;;;;17.67;11.47;;;2.80;75.80;0.90;95745.00;;;;5050067;28;20483;-84
2023/12/08 04:23:46;;;;;;;17.77;11.57;;;2.80;75.80;0.90;95726.00;;;;5034832;28;20428;-83
2023/12/08 04:26:13;;;;;;;17.90;12.20;;;2.90;75.70;0.90;95722.00;;;;5041789;28;20444;-83
2023/12/08 04:28:41;;;;;;;18.07;11.43;;;2.90;75.70;0.90;95707.00;;;;5040978;28;20432;-83
2023/12/08 04:31:08;;;;;;;20.13;11.40;;;3.00;75.80;0.90;95706.00;;;;5039116;28;20455;-83
2023/12/08 04:33:36;;;;;;;20.07;12.57;;;2.90;75.80;1.00;95721.00;;;;5030413;28;20451;-83
2023/12/08 04:36:04;;;;;;;20.90;12.43;;;3.00;76.00;1.00;95709.00;;;;5038772;28;20459;-83
2023/12/08 04:38:31;;;;;;;20.77;13.07;;;3.00;76.00;1.10;95715.00;;;;5049798;28;20552;-83
2023/12/08 04:41:00;;;;;;;18.77;12.10;;;3.00;76.00;1.10;95723.00;;;;5041284;28;20424;-83
2023/12/08 04:43:27;;;;;;;17.20;11.30;;;3.10;76.00;1.10;95740.00;;;;5034709;28;20458;-83
2023/12/08 04:45:55;;;;;;;21.93;12.40;;;3.10;76.10;1.20;95738.00;;;;5051375;28;20966;-83
2023/12/08 04:48:22;;;;;;;20.80;12.73;;;3.10;76.30;1.20;95730.00;;;;5051777;28;20443;-82
2023/12/08 04:50:52;;;;;;;20.03;12.60;;;3.10;75.90;1.20;95721.00;;;;5050498;28;20873;-83
2023/12/08 04:53:19;;;;;;;21.87;13.10;;;3.20;76.00;1.20;95710.00;;;;5032451;28;20565;-83
2023/12/08 04:55:46;;;;;;;20.27;12.37;;;3.20;76.10;1.30;95716.00;;;;5030343;28;20475;-82
2023/12/08 04:58:16;;;;;;;19.60;11.80;;;3.30;76.10;1.30;95699.00;;;;5033394;28;20444;-83
2023/12/08 05:00:43;;;;;;;19.53;12.27;;;3.30;76.20;1.30;95693.00;;;;5029000;28;20829;-83
2023/12/08 05:03:11;;;;;;;19.80;12.33;;;3.30;76.30;1.40;95687.00;;;;5025133;28;20533;-84
2023/12/08 05:05:39;;;;;;;16.67;11.50;;;3.30;76.40;1.40;95676.00;;;;5031739;28;20491;-83
2023/12/08 05:08:06;;;;;;;18.83;11.70;;;3.30;76.30;1.40;95670.00;;;;5032690;28;20458;-83
2023/12/08 05:10:35;;;;;;;18.93;12.30;;;3.40;76.30;1.50;95660.00;;;;5052772;28;20798;-84
2023/12/08 05:13:03;;;;;;;18.40;11.37;;;3.40;76.20;1.50;95651.00;;;;5038883;28;20451;-83
2023/12/08 05:15:31;;;;;;;21.07;13.27;;;3.40;76.20;1.50;95643.00;;;;5054372;28;20451;-84
2023/12/08 05:17:59;;;;;;;18.40;12.37;;;3.40;76.20;1.50;95654.00;;;;5039776;28;20435;-84
2023/12/08 05:20:26;;;;;;;19.37;12.50;;;3.50;76.20;1.60;95678.00;;;;5034723;28;20451;-83
2023/12/08 05:22:53;;;;;;;21.20;13.23;;;3.50;76.10;1.60;95711.00;;;;5049123;28;20479;-83
2023/12/08 05:25:21;;;;;;;18.07;11.97;;;3.50;75.90;1.60;95726.00;;;;5037079;28;20527;-84
2023/12/08 05:27:49;;;;;;;19.27;12.07;;;3.50;75.90;1.60;95736.00;;;;5032830;28;20463;-83
2023/12/08 05:30:16;;;;;;;19.70;12.73;;;3.50;75.90;1.60;95721.00;;;;5051162;28;20481;-83
2023/12/08 05:32:45;;;;;;;19.80;12.87;;;3.50;75.60;1.60;95733.00;;;;5052712;28;20919;-84
2023/12/08 05:35:13;;;;;;;20.50;12.90;;;3.50;75.50;1.60;95735.00;;;;5052505;28;20521;-83
2023/12/08 05:37:40;;;;;;;20.90;12.43;;;3.60;75.80;1.60;95715.00;;;;5046414;28;20444;-83
2023/12/08 05:40:10;;;;;;;20.83;13.20;;;3.60;75.80;1.60;95705.00;;;;5046742;28;20439;-83
2023/12/08 05:42:37;;;;;;;17.83;12.43;;;3.50;75.80;1.60;95716.00;;;;5035155;28;20495;-83
2023/12/08 05:45:05;;;;;;;18.23;11.93;;;3.60;75.90;1.70;95727.00;;;;5034446;28;20550;-84
2023/12/08 05:47:32;;;;;;;17.70;11.17;;;3.60;75.90;1.70;95755.00;;;;5046042;28;20482;-83
2023/12/08 05:50:02;;;;;;;17.87;11.87;;;3.60;75.80;1.70;95770.00;;;;5039196;28;20961;-84
2023/12/08 05:52:30;;;;;;;17.77;11.43;;;3.60;75.90;1.70;95775.00;;;;5034377;28;20498;-83
2023/12/08 05:54:57;;;;;;;18.73;11.80;;;3.60;76.00;1.70;95784.00;;;;5034387;28;20496;-83
2023/12/08 05:57:25;;;;;;;19.93;12.47;;;3.60;76.10;1.70;95786.00;;;;5034130;28;20466;-83
2023/12/08 05:59:52;;;;;;;18.17;11.67;;;3.60;76.20;1.70;95813.00;;;;5034660;28;20433;-84
2023/12/08 06:02:19;;;;;;;19.30;12.63;;;3.60;76.30;1.70;95805.00;;;;5033852;28;20558;-83
2023/12/08 06:04:46;;;;;;;16.90;11.90;;;3.70;76.50;1.80;95817.00;;;;5034127;28;20456;-84
2023/12/08 06:07:15;;;;;;;20.33;13.03;;;3.70;76.40;1.80;95825.00;;;;5033717;28;20483;-84
2023/12/08 06:09:42;;;;;;;18.70;12.13;;;3.70;76.30;1.90;95836.00;;;;5043098;28;20221;-84
2023/12/08 06:12:09;;;;;;;17.00;12.00;;;3.80;76.50;1.90;95816.00;;;;5039519;28;20963;-84
2023/12/08 06:14:36;;;;;;;17.93;11.60;;;3.80;76.20;1.90;95800.00;;;;5033865;28;20487;-84
2023/12/08 06:17:04;;;;;;;16.60;11.67;;;3.80;76.00;1.90;95786.00;;;;5033576;28;20424;-84
2023/12/08 06:19:32;;;;;;;20.00;12.40;;;3.80;75.90;1.90;95749.00;;;;5033474;28;20444;-84
2023/12/08 06:21:59;;;;;;;18.43;12.03;;;3.80;75.90;1.90;95765.00;;;;5031856;28;20530;-84
2023/12/08 06:24:27;;;;;;;18.10;11.67;;;3.90;76.00;1.90;95746.00;;;;5034368;28;20619;-84
2023/12/08 06:26:55;;;;;;;18.00;12.13;;;3.80;76.00;1.90;95761.00;;;;5036974;28;20819;-84
2023/12/08 06:29:22;;;;;;;17.67;11.37;;;3.90;76.20;2.00;95763.00;;;;5031985;28;20213;-84
2023/12/08 06:31:49;;;;;;;17.60;11.37;;;4.40;76.50;2.00;95771.00;;;;5045274;28;20451;-83
2023/12/08 06:34:16;;;;;;;18.67;12.07;;;3.90;76.20;2.00;95757.00;;;;5046749;28;20483;-82
2023/12/08 06:36:48;;;;;;;18.30;12.20;;;3.90;76.20;2.00;95774.00;;;;5039749;28;20815;-82
2023/12/08 06:39:16;;;;;;;20.10;12.40;;;4.00;76.10;2.10;95783.00;;;;5048654;28;20450;-82
2023/12/08 06:41:44;;;;;;;16.70;11.37;;;4.00;76.20;2.10;95801.00;;;;5039436;28;20439;-83
2023/12/08 06:44:12;;;;;;;18.73;11.90;;;4.00;76.10;2.20;95816.00;;;;5049312;28;20483;-82
2023/12/08 06:46:39;;;;;;;16.00;11.30;;;4.10;76.20;2.20;95829.00;;;;5042776;28;20441;-82
2023/12/08 06:49:07;;;;;;;17.93;11.47;;;4.10;76.20;2.30;95843.00;;;;5040986;28;20196;-83
2023/12/08 06:51:35;;;;;;;17.60;11.67;;;4.20;76.30;2.30;95830.00;;;;5032011;28;20189;-82
2023/12/08 06:54:03;;;;;;;17.47;11.60;;;4.20;76.20;2.30;95833.00;;;;5051153;28;20467;-82
2023/12/08 06:56:33;;;;;;;18.73;12.47;;;4.30;76.90;2.40;95835.00;;;;5043775;28;20435;-82
2023/12/08 06:59:02;;;;;;;17.77;12.40;;;4.30;76.00;2.40;95845.00;;;;5037264;28;20463;-83
2023/12/08 07:01:29;;;;;;;17.37;11.47;;;4.40;75.90;2.50;95845.00;;;;5026535;28;20205;-83
2023/12/08 07:03:57;;;;;;;18.30;11.73;;;4.40;76.00;2.50;95845.00;;;;5031748;28;20217;-83
2023/12/08 07:06:24;;;;;;;17.10;11.90;;;4.40;76.00;2.50;95846.00;;;;5048294;28;20201;-82
2023/12/08 07:08:51;;;;;;;17.30;12.37;;;4.40;76.00;2.60;95840.00;;;;5045747;28;20623;-83
2023/12/08 07:11:18;;;;;;;18.00;11.67;;;4.50;75.90;2.60;95852.00;;;;5041754;28;20224;-83
2023/12/08 07:13:45;;;;;;;17.87;11.50;;;4.50;75.70;2.60;95857.00;;;;5044137;28;20225;-83
2023/12/08 07:16:17;;;;;;;17.67;11.50;;;4.50;75.80;2.60;95850.00;;;;5049354;28;20200;-83
2023/12/08 07:18:45;;;;;;;18.33;12.17;;;4.50;75.80;2.60;95835.00;;;;5048765;28;20275;-83
2023/12/08 07:21:12;;;;;;;18.03;12.10;;;4.60;75.90;2.60;95844.00;;;;5043306;28;20280;-83
2023/12/08 07:23:41;;;;;;;18.27;12.27;;;4.60;75.40;2.60;95833.00;;;;5042182;28;20252;-83
2023/12/08 07:26:10;;;;;;;18.60;11.83;;;4.60;75.20;2.60;95826.00;;;;5048337;28;20211;-83
2023/12/08 07:28:37;;;;;;;16.80;11.90;;;4.60;75.00;2.60;95830.00;;;;5046334;28;20224;-82
2023/12/08 07:31:05;;;;;;;16.73;11.07;;;4.60;74.80;2.60;95823.00;;;;5041800;28;20280;-82
2023/12/08 07:33:33;;;;;;;18.07;11.30;;;4.70;75.00;2.60;95824.00;;;;5047000;28;20232;-82
2023/12/08 07:36:00;;;;;;;17.20;12.40;;;4.70;75.00;2.60;95831.00;;;;5049901;28;20229;-82
2023/12/08 07:38:28;;;;;;;20.00;12.37;;;4.70;75.20;2.70;95842.00;;;;5051217;28;20262;-83
2023/12/08 07:40:55;;;;;;;21.50;12.90;;;4.70;75.40;2.70;95843.00;;;;5052741;28;20208;-82
2023/12/08 07:43:22;;;;;;;20.37;12.13;;;4.70;75.50;2.70;95841.00;;;;5048167;28;20299;-82
2023/12/08 07:45:51;;;;;;;19.20;12.07;;;4.70;75.20;2.80;95835.00;;;;5038820;28;20260;-82
2023/12/08 07:48:18;;;;;;;17.50;11.83;;;4.80;75.00;2.80;95835.00;;;;5042070;28;20197;-83
2023/12/08 07:50:46;;;;;;;17.90;11.70;;;4.80;75.60;2.70;95833.00;;;;5047540;28;20334;-83
2023/12/08 07:53:14;;;;;;;18.47;11.50;;;4.80;75.00;2.80;95836.00;;;;5037573;28;20743;-83
2023/12/08 07:55:41;;;;;;;19.30;12.50;;;4.80;75.20;2.80;95847.00;;;;5016231;28;20225;-83
2023/12/08 07:58:09;;;;;;;20.07;12.63;;;4.80;75.10;2.80;95838.00;;;;5042157;28;20717;-82
2023/12/08 08:00:36;;;;;;;19.80;12.50;;;4.90;75.00;2.90;95851.00;;;;5041697;28;20229;-83
2023/12/08 08:03:04;;;;;;;18.23;12.67;;;4.90;74.90;2.90;95861.00;;;;5034047;28;20653;-82
2023/12/08 08:05:31;;;;;;;17.90;11.83;;;4.90;75.10;2.90;95853.00;;;;5037711;28;20275;-83
2023/12/08 08:08:02;;;;;;;18.47;11.83;;;4.90;75.10;2.90;95846.00;;;;5048425;28;20220;-83
2023/12/08 08:10:29;;;;;;;22.73;12.70;;;4.90;74.70;2.90;95848.00;;;;5039740;28;20672;-83
2023/12/08 08:12:56;;;;;;;18.77;12.13;;;4.90;74.80;2.90;95838.00;;;;5048523;28;20246;-83
2023/12/08 08:15:23;;;;;;;21.43;13.23;;;4.90;74.70;2.90;95842.00;;;;5034133;28;20707;-83
2023/12/08 08:17:50;;;;;;;21.00;12.77;;;5.00;74.90;2.90;95840.00;;;;5039733;28;20275;-83
2023/12/08 08:20:17;;;;;;;22.97;13.73;;;5.00;74.90;2.90;95829.00;;;;5048750;28;20232;-82
2023/12/08 08:22:44;;;;;;;22.43;13.13;;;5.00;75.00;3.00;95832.00;;;;5038623;28;20284;-83
2023/12/08 08:25:13;;;;;;;20.00;12.77;;;5.00;75.00;3.00;95828.00;;;;5045378;28;20217;-83
2023/12/08 08:27:40;;;;;;;21.53;12.70;;;5.00;75.10;3.00;95824.00;;;;5038995;28;20213;-83
2023/12/08 08:30:08;;;;;;;21.10;13.40;;;5.00;75.30;3.10;95824.00;;;;5040738;28;20215;-83
2023/12/08 08:32:35;;;;;;;18.60;12.77;;;5.10;75.30;3.10;95817.00;;;;5038623;28;20247;-83
2023/12/08 08:35:03;;;;;;;20.67;12.80;;;5.10;75.30;3.20;95821.00;;;;5051757;28;20247;-83
2023/12/08 08:37:30;;;;;;;18.60;12.00;;;5.10;75.20;3.20;95820.00;;;;5035794;28;20205;-83
2023/12/08 08:39:57;;;;;;;17.50;12.27;;;5.20;75.50;3.20;95831.00;;;;5048099;28;20243;-82
2023/12/08 08:42:26;;;;;;;18.87;13.20;;;5.20;75.50;3.30;95827.00;;;;5040373;28;20193;-83
2023/12/08 08:44:53;;;;;;;20.43;13.17;;;5.30;75.10;3.30;95834.00;;;;5041654;28;20237;-83
2023/12/08 08:47:20;;;;;;;19.90;13.27;;;5.30;75.20;3.40;95842.00;;;;5045821;28;20224;-83
2023/12/08 08:49:47;;;;;;;19.13;13.53;;;5.30;75.20;3.40;95851.00;;;;5040320;28;20277;-83
2023/12/08 08:52:14;;;;;;;19.40;12.27;;;5.30;75.30;3.40;95844.00;;;;5050468;28;20683;-83
2023/12/08 08:54:41;;;;;;;24.43;14.03;;;5.40;75.30;3.50;95858.00;;;;5042333;28;20236;-83
2023/12/08 08:57:08;;;;;;;21.60;14.27;;;5.40;75.20;3.50;95853.00;;;;5043984;28;20224;-83
2023/12/08 08:59:37;;;;;;;19.50;13.20;;;5.40;75.00;3.50;95857.00;;;;5048692;28;20193;-83
2023/12/08 09:02:04;;;;;;;22.37;14.17;;;5.50;75.00;3.50;95852.00;;;;5049685;28;20197;-83
2023/12/08 09:04:31;;;;;;;20.27;13.00;;;5.50;75.10;3.60;95858.00;;;;5053420;28;20228;-84
2023/12/08 09:06:59;;;;;;;22.07;14.00;;;5.60;75.30;3.70;95856.00;;;;5039247;28;20221;-83
2023/12/08 09:09:26;;;;;;;20.63;13.70;;;5.60;75.40;3.70;95875.00;;;;5043168;28;20257;-84
2023/12/08 09:11:53;;;;;;;20.90;13.57;;;5.60;75.20;3.70;95875.00;;;;5042832;28;20919;-83
2023/12/08 09:14:20;;;;;;;25.40;14.43;;;5.70;75.20;3.80;95874.00;;;;5045786;28;20297;-83
2023/12/08 09:16:49;;;;;;;20.43;13.40;;;5.70;75.10;3.80;95861.00;;;;5044208;28;20778;-83
2023/12/08 09:19:16;;;;;;;20.93;13.50;;;5.80;74.70;3.80;95866.00;;;;5050166;28;20216;-83
2023/12/08 09:21:43;;;;;;;20.17;13.00;;;5.80;74.60;3.80;95860.00;;;;5040206;28;20669;-84
2023/12/08 09:24:11;;;;;;;18.43;12.30;;;5.80;74.80;3.80;95868.00;;;;5048488;28;20252;-82
2023/12/08 09:26:38;;;;;;;20.20;13.17;;;5.80;75.00;3.90;95868.00;;;;5042751;28;20231;-82
2023/12/08 09:29:06;;;;;;;18.40;13.07;;;5.80;75.00;3.90;95866.00;;;;5048758;28;20193;-83
2023/12/08 09:31:33;;;;;;;20.37;13.33;;;5.90;75.10;3.90;95873.00;;;;5040634;28;20227;-84
2023/12/08 09:34:01;;;;;;;20.80;13.53;;;5.90;75.20;4.00;95859.00;;;;5044720;28;20576;-84
2023/12/08 09:36:28;;;;;;;19.53;13.57;;;5.90;75.10;4.00;95863.00;;;;5040665;28;20224;-84
2023/12/08 09:38:56;;;;;;;20.73;13.77;;;5.90;75.00;4.00;95863.00;;;;5027984;28;20197;-84
2023/12/08 09:41:24;;;;;;;22.83;14.13;;;6.00;75.00;4.00;95862.00;;;;5036773;28;20622;-84
2023/12/08 09:44:00;;;;;;;19.47;13.80;;;6.00;74.70;4.00;95864.00;;;;5044293;28;20665;-84
2023/12/08 09:46:28;;;;;;;19.80;13.13;;;6.00;74.60;4.10;95859.00;;;;5036840;28;20299;-84
2023/12/08 09:48:58;;;;;;;23.40;14.57;;;6.00;74.90;4.10;95863.00;;;;5043201;28;20692;-85
2023/12/08 09:51:30;;;;;;;22.87;14.13;;;6.00;74.70;4.10;95851.00;;;;5041364;28;20284;-84
2023/12/08 09:53:58;;;;;;;19.77;12.87;;;6.10;74.80;4.10;95855.00;;;;5046454;28;20224;-83
2023/12/08 09:56:29;;;;;;;21.63;14.17;;;6.10;74.80;4.20;95857.00;;;;5029396;28;20273;-84
2023/12/08 09:58:57;;;;;;;23.33;14.07;;;6.10;74.90;4.20;95852.00;;;;5038717;28;20643;-84
2023/12/08 10:01:24;;;;;;;22.40;13.97;;;6.10;74.90;4.20;95864.00;;;;5043293;28;20209;-83
2023/12/08 10:03:51;;;;;;;20.73;13.73;;;6.10;75.00;4.20;95879.00;;;;5049679;28;20687;-83
2023/12/08 10:06:23;;;;;;;23.07;14.70;;;6.20;75.10;4.30;95867.00;;;;5044243;28;20201;-83
2023/12/08 10:08:52;;;;;;;24.10;13.47;;;6.20;75.10;4.30;95859.00;;;;5047424;28;20193;-83
2023/12/08 10:11:19;;;;;;;21.23;14.23;;;6.20;75.20;4.40;95855.00;;;;5050773;28;20204;-83
2023/12/08 10:13:47;;;;;;;21.63;13.80;;;6.30;75.40;4.40;95855.00;;;;5039202;28;20198;-83
2023/12/08 10:16:15;;;;;;;21.67;13.67;;;6.30;75.30;4.50;95853.00;;;;5045376;28;20232;-83
2023/12/08 10:18:42;;;;;;;21.80;13.47;;;6.30;75.10;4.50;95850.00;;;;5046794;28;20657;-83
2023/12/08 10:21:17;;;;;;;20.90;13.63;;;6.40;75.10;4.50;95851.00;;;;5037431;28;20646;-82
2023/12/08 10:23:46;;;;;;;21.87;13.90;;;6.40;74.20;4.50;95856.00;;;;5043705;28;20212;-82
2023/12/08 10:26:16;;;;;;;23.27;14.73;;;6.40;74.60;4.50;95849.00;;;;5043893;28;20197;-83
2023/12/08 10:28:43;;;;;;;22.50;14.73;;;6.40;74.50;4.50;95837.00;;;;5042242;28;20193;-83
2023/12/08 10:31:11;;;;;;;23.30;14.67;;;6.40;74.40;4.50;95836.00;;;;5044779;28;20200;-83
2023/12/08 10:33:40;;;;;;;20.93;14.43;;;6.40;74.30;4.50;95826.00;;;;5046212;28;20255;-83
2023/12/08 10:36:08;;;;;;;21.93;13.10;;;6.40;74.50;4.50;95823.00;;;;5042736;28;20236;-83
2023/12/08 10:38:36;;;;;;;21.43;13.60;;;6.50;74.70;4.50;95823.00;;;;5043093;28;20236;-83
2023/12/08 10:41:04;;;;;;;22.93;14.23;;;6.50;75.50;4.50;95844.00;;;;5045673;28;21662;-83
2023/12/08 10:43:33;;;;;;;23.10;13.73;;;6.40;74.30;4.50;95837.00;;;;5057591;28;20247;-82
2023/12/08 10:46:01;;;;;;;21.80;13.37;;;6.40;74.30;4.50;95850.00;;;;5045556;28;20251;-82
2023/12/08 10:48:29;;;;;;;20.27;13.63;;;6.40;74.60;4.50;95838.00;;;;5048527;28;20242;-83
2023/12/08 10:50:56;;;;;;;22.83;14.60;;;6.40;74.70;4.50;95836.00;;;;5046371;28;20224;-82
2023/12/08 10:53:24;;;;;;;22.77;14.67;;;6.40;75.10;4.50;95836.00;;;;5048458;28;20228;-82
2023/12/08 10:55:57;;;;;;;24.70;14.87;;;6.40;75.20;4.60;95841.00;;;;5044363;28;20247;-84
2023/12/08 10:58:25;;;;;;;27.23;16.47;;;6.50;75.20;4.60;95848.00;;;;5045534;28;20739;-84